Merbes-le-Chateau, Belgium
Current Conditions -  °F | °C
As of 5:50 PM on Saturday 25 Oct 2014 (Local Time) from EBCI Reporting Station
Few Clouds Few Clouds  
Wind Chill: 55°   Ceiling: Unl
Heat Index: 55°   Visibility: 6mi
Dew Point: 50°   Wind: 3mph
Humidity: 82%   Direction: 280°W
Pressure: 30.15"   Gusts: NA
Location:  50.32°N, 4.16°E
Report Text: EBCI 251550Z 28003KT 250V330 9999 FEW015 13/10 Q1021 NOSIG
Loading
Personal Weather Stations






























Interactive Weather Map
Tropical Storm Tracking
New forecast layout! Learn more

10-Day Weather Forecast

Advertisements
Track Severe Weather on mobile